Wapakoneta, Ohio
Current Conditions -  °F | °C
As of 7:13 AM on Friday 21 Nov 2014 (Local Time) from KAXV Reporting Station
Clear Clear  
Wind Chill:   Ceiling: Unl
Heat Index: 10°   Visibility: 10mi
Dew Point:   Wind: 5mph
Humidity: 79%   Direction: 230°SW
Pressure: 30.42"   Gusts: NA
Location:  40.57°N, 84.19°W
Report Text: KAXV 211213Z AUTO 23004KT 10SM CLR M12/M15 A3042 RMK AO2
Loading
Personal Weather Stations






























Interactive Weather Map New forecast layout! Learn more

10-Day Weather Forecast

Advertisements
Track Severe Weather on mobile